x

Sentry Shoal (46131) Wave Buoy

4:00 - Tue 9th Feb 2016 All times are PST. -8 hours from GMT.

  • Sig Wave height 0.3ft
  • Peak Period 6s
  • Wind
    4mph, 7mph gusts
  • Sea Temp 46°f
  • Ar Temp 41°f
  • Sea Pressure 1019.6mb
  • Sentry Shoal
  • Sentry Shoal

More Historic Weather Station data

Upgrade to MSW Pro to gain access to the past 30 days of data for over 8000 Wavebouys and Weather Stations around the globe.

Join Pro

Comparision Forecast

View Surf forecast
   
Ter 02/09 4:00 0.3ft 6s 4 7 mph 1019.6mb 46f 41f
3:00  -  6s 2 4 mph 1020.1mb 46f 41f
2:00  -  6s 4 7 mph 1020.3mb 46f 41f
1:00  -  5s 7 9 mph 1021mb 47f 41f
12:00  -  6s 2 7 mph 1021.8mb 46f 40f
11:00  -  6s 2 4 mph 1022.6mb 46f 41f
10:00  -  6s 2 4 mph 1022.7mb 46f 40f
9:00  -  6s  -  2 mph 1022.7mb 45f 39f
8:00  -  6s 2 4 mph 1022.6mb 45f 39f
7:00 0.3ft 5s 2 4 mph 1022.5mb 45f 39f
6:00 0.3ft 5s 2 4 mph 1022.8mb 45f 41f
5:00 0.3ft 5s 4
mph
1023.4mb 45f 41f
4:00 0.3ft 4s 4 7 mph 1024mb 45f 44f
3:00 0.3ft 2s 7
mph
1024.8mb 45f 44f
2:00 0.3ft 2s 7
mph
1025.6mb 45f 44f
1:00 0.3ft 2s 7
mph
1026.2mb 45f 44f
12:00 0.3ft 5s 7
mph
1027.2mb 46f 45f
Seg 02/08 11:00 0.3ft 5s 7
mph
1028.1mb 46f 46f
10:00  -  5s 7 9 mph 1028.8mb 46f 46f
9:00  -  5s 7
mph
1029.4mb 46f 46f
8:00  -  5s 7
mph
1029.8mb 46f 46f
7:00  -  5s 4
mph
1029.9mb 45f 45f
6:00  -  5s 2 4 mph 1030.1mb 46f 46f
5:00 0.3ft 5s 2
mph
1030.4mb 46f 47f
4:00 0.3ft 5s 2
mph
1030.4mb 46f 48f
3:00 0.3ft 5s  -  mph 1030.7mb 47f 49f
2:00 0.3ft 6s 2
mph
1031.2mb 46f 47f
1:00 0.3ft 6s 4
mph
1032.2mb 46f 46f
12:00 0.3ft 2s 4 7 mph 1032.8mb 46f 45f
11:00 0.3ft 6s 4 7 mph 1033.5mb 46f 45f
10:00 0.3ft 6s 7
mph
1033.7mb 46f 45f
9:00 0.3ft 6s 7
mph
1033.5mb 46f 44f
8:00 0.3ft 5s 7 9 mph 1033.3mb 46f 44f
7:00 0.3ft 5s 7 9 mph 1033.6mb 46f 44f
6:00 0.3ft 5s 7
mph
1033.7mb 46f 44f
5:00 0.3ft 5s 7
mph
1033.5mb 46f 44f
4:00  -  5s 4
mph
1033.6mb 46f 44f
3:00 0.3ft 5s 4
mph
1034mb 46f 44f
2:00 0.3ft 5s 2 4 mph 1034.4mb 46f 44f
1:00 0.3ft 5s 2 4 mph 1034.9mb 46f 44f
12:00 0.3ft 5s  -  2 mph 1035.8mb 46f 44f
Dom 02/07 11:00 0.3ft 5s  -  2 mph 1035.8mb 46f 44f
10:00 0.3ft 5s 2
mph
1035.9mb 47f 45f
9:00 0.3ft 5s 4 7 mph 1036mb 47f 45f
8:00 0.3ft 3s 7 9 mph 1036.2mb 47f 45f
7:00 0.3ft 3s 4 7 mph 1035.8mb 47f 45f
6:00 0.3ft 3s 2
mph
1035.7mb 47f 44f
5:00 0.3ft 3s 2 4 mph 1035.7mb 47f 45f
4:00 0.7ft 2s 4 7 mph 1036.1mb 47f 44f
3:00 1ft 2s 7 9 mph 1036.2mb 47f 44f
2:00 1ft 2s 7 9 mph 1036mb 47f 45f
1:00 1ft 2s 9 11 mph 1036.2mb 47f 45f
12:00 1ft 3s 9 11 mph 1036.2mb 47f 44f
11:00 1.3ft 3s 11 13 mph 1036.4mb 47f 44f
10:00 1ft 2s 16 18 mph 1035.5mb 47f 44f
9:00 1ft 2s 11 13 mph 1035.3mb 47f 43f
8:00 1ft 2s 11 13 mph 1034.9mb 47f 43f
7:00 1ft 2s 11 13 mph 1034.3mb 47f 43f
6:00 0.7ft 3s 9
mph
1033.7mb 47f 44f
5:00 1ft 2s 9 11 mph 1033.8mb 47f 44f
4:00 0.7ft 2s 11 13 mph 1032.9mb 47f 44f
3:00 0.7ft 2s 9 11 mph 1033.6mb 47f 44f
2:00 1ft 3s 9 11 mph 1034.2mb 47f 44f
1:00 1.3ft 3s 11 13 mph 1034.1mb 47f 44f
12:00 1.3ft 2s 13 16 mph 1033.6mb 47f 44f
Sáb 02/06 11:00 1ft 2s 13 16 mph 1033.2mb 47f 44f
10:00 1ft 2s 9 11 mph 1033.5mb 47f 45f
9:00 0.7ft 2s 9 11 mph 1033.1mb 47f 45f
8:00 0.7ft 2s 9 11 mph 1032.2mb 47f 45f
7:00 0.3ft 2s 9 11 mph 1031.5mb 47f 45f
6:00 0.3ft 2s 9 11 mph 1031.6mb 47f 46f
5:00 0.3ft 5s 9 11 mph 1031.4mb 47f 46f
4:00 0.3ft 2s 4
mph
1030.6mb 47f 46f
3:00 0.3ft 2s 2 4 mph 1030.8mb 47f 46f
2:00 0.3ft 2s 4 7 mph 1030.7mb 47f 45f
1:00 0.3ft 2s 7
mph
1030.7mb 47f 44f
12:00 0.3ft 2s 4 7 mph 1030.6mb 47f 45f
11:00 0.3ft 4s 7
mph
1030.9mb 47f 44f
10:00 0.3ft 6s  -  2 mph 1030.1mb 47f 44f
9:00 0.3ft 3s 4 7 mph 1029.1mb 47f 43f
8:00 0.3ft 6s 2 4 mph 1028.3mb 47f 43f
7:00 0.3ft 5s 4
mph
1027.7mb 47f 43f
6:00 0.3ft 5s 4
mph
1026.7mb 47f 44f
5:00 0.3ft 5s 4
mph
1025.4mb 47f 45f
4:00 0.3ft 5s 7 9 mph 1024.2mb 47f 45f
3:00 0.3ft 2s 4 7 mph 1023.2mb 47f 44f
2:00 0.3ft 2s 4 7 mph 1022.1mb 47f 45f